This is the latest recevied weather packets stored in our database for station/object VE3TEJ. If no packets are shown the sender has not sent any weather packets the latest 10 day(s).
| Time | Temp. | Humidity | Pressure | Rain* | Wind** | Luminosity | Snow |
|---|---|---|---|---|---|---|---|
| 1777921747 | 20.56° C | 49% | 1001.6 hPa | 0 mm | - | - | - |
| 1777921447 | 20.56° C | 50% | 1001.5 hPa | 0 mm | - | - | - |
| 1777921149 | 20° C | 50% | 1001.7 hPa | 0 mm | - | - | - |
| 1777920848 | 20.56° C | 49% | 1001.9 hPa | 0 mm | - | - | - |
| 1777920548 | 20.56° C | 49% | 1002 hPa | 0 mm | - | - | - |
| 1777920247 | 20.56° C | 50% | 1002.1 hPa | 0 mm | - | - | - |
| 1777919949 | 20.56° C | 50% | 1001.9 hPa | 0 mm | - | - | - |
| 1777919648 | 21.11° C | 48% | 1002.1 hPa | 0 mm | - | - | - |
| 1777919349 | 20.56° C | 50% | 1002.1 hPa | 0 mm | - | - | - |
| 1777919049 | 20.56° C | 51% | 1001.9 hPa | 0 mm | - | - | - |
| 1777918748 | 20.56° C | 52% | 1001.9 hPa | 0 mm | - | - | - |
| 1777918448 | 20.56° C | 51% | 1002 hPa | 0 mm | - | - | - |
| 1777918147 | 20.56° C | 52% | 1002.2 hPa | 0 mm | - | - | - |
| 1777917849 | 20.56° C | 52% | 1002.3 hPa | 0 mm | - | - | - |
| 1777917549 | 20.56° C | 51% | 1002.3 hPa | 0 mm | - | - | - |
| 1777917248 | 20.56° C | 52% | 1002.3 hPa | 0 mm | - | - | - |
| 1777916948 | 20° C | 55% | 1002.5 hPa | 0 mm | - | - | - |
| 1777916647 | 19.44° C | 54% | 1002.5 hPa | 0 mm | - | - | - |
| 1777916347 | 19.44° C | 55% | 1002.6 hPa | 0 mm | - | - | - |
| 1777916049 | 19.44° C | 55% | 1002.7 hPa | 0 mm | - | - | - |
| 1777915748 | 19.44° C | 54% | 1002.6 hPa | 0 mm | - | - | - |
| 1777915448 | 19.44° C | 55% | 1002.7 hPa | 0 mm | - | - | - |
| 1777915147 | 19.44° C | 55% | 1002.6 hPa | 0 mm | - | - | - |
| 1777914849 | 18.33° C | 57% | 1002.7 hPa | 0 mm | - | - | - |
| 1777914548 | 18.89° C | 57% | 1002.8 hPa | 0 mm | - | - | - |
* Rain latest hour (hover to see other rain measurements)
** Current wind speed in m/s (hover to see current wind gust speed)